Time;durP1;ratioP1;P1;durP2;ratioP2;P2;SDS_P1;SDS_P2;PMS_P1;PMS_P2;Temp;Humidity;BMP_temperature;BMP_pressure;BME280_temperature;BME280_humidity;BME280_pressure;Samples;Min_cycle;Max_cycle;Signal;HPM_P1;HPM_P2
2023/04/05 00:01:29;;;;;;;12.38;5.50;;;;;;;;;;5063833;28;20080;-78
2023/04/05 00:03:59;;;;;;;9.07;5.68;;;;;;;;;;5065168;28;20060;-78
2023/04/05 00:06:27;;;;;;;15.25;5.97;;;;;;;;;;5064632;28;20053;-80
2023/04/05 00:08:55;;;;;;;8.77;6.32;;;;;;;;;;5064311;28;20907;-79
2023/04/05 00:11:21;;;;;;;9.15;5.57;;;;;;;;;;5063614;28;20045;-80
2023/04/05 00:13:48;;;;;;;7.53;5.30;;;;;;;;;;5064829;28;20434;-79
2023/04/05 00:16:18;;;;;;;8.50;5.25;;;;;;;;;;5063823;28;20490;-80
2023/04/05 00:18:51;;;;;;;7.95;5.75;;;;;;;;;;5064005;28;20505;-81
2023/04/05 00:21:20;;;;;;;9.27;5.63;;;;;;;;;;5064695;28;20115;-80
2023/04/05 00:23:51;;;;;;;9.75;6.50;;;;;;;;;;5065157;28;20080;-78
2023/04/05 00:26:18;;;;;;;8.73;5.22;;;;;;;;;;5064544;28;20490;-79
2023/04/05 00:28:44;;;;;;;11.48;5.78;;;;;;;;;;5063167;28;20053;-78
2023/04/05 00:31:11;;;;;;;10.88;5.68;;;;;;;;;;5063958;28;20107;-78
2023/04/05 00:33:37;;;;;;;11.75;5.95;;;;;;;;;;5062939;28;20060;-80
2023/04/05 00:36:10;;;;;;;8.57;5.28;;;;;;;;;;5063716;28;20120;-80
2023/04/05 00:38:36;;;;;;;12.38;5.88;;;;;;;;;;5064234;28;20056;-80
2023/04/05 00:41:03;;;;;;;13.73;5.25;;;;;;;;;;5061775;28;20052;-78
2023/04/05 00:43:29;;;;;;;13.52;5.85;;;;;;;;;;5062048;28;20147;-80
2023/04/05 00:45:56;;;;;;;9.52;6.05;;;;;;;;;;5061901;28;20053;-78
2023/04/05 00:48:22;;;;;;;10.18;6.13;;;;;;;;;;5061985;28;20053;-80
2023/04/05 00:50:49;;;;;;;10.18;5.50;;;;;;;;;;5059236;28;20119;-80
2023/04/05 00:53:17;;;;;;;8.18;5.40;;;;;;;;;;5064895;28;20097;-80
2023/04/05 00:55:45;;;;;;;9.63;5.65;;;;;;;;;;5064609;28;20053;-78
2023/04/05 00:58:11;;;;;;;10.13;5.82;;;;;;;;;;5063886;28;20057;-78
2023/04/05 01:00:38;;;;;;;10.60;6.00;;;;;;;;;;5064325;28;20060;-78
2023/04/05 01:03:06;;;;;;;8.15;5.68;;;;;;;;;;5063465;28;20053;-80
2023/04/05 01:05:36;;;;;;;11.93;5.97;;;;;;;;;;5094455;28;20060;-80
2023/04/05 01:08:02;;;;;;;10.27;6.00;;;;;;;;;;5064115;28;20048;-79
2023/04/05 01:10:33;;;;;;;8.23;5.68;;;;;;;;;;5063351;28;20080;-80
2023/04/05 01:13:00;;;;;;;7.32;5.28;;;;;;;;;;5063592;28;20049;-80
2023/04/05 01:15:26;;;;;;;9.00;5.93;;;;;;;;;;5063607;28;20110;-80
2023/04/05 01:17:53;;;;;;;10.45;6.07;;;;;;;;;;5063737;28;20118;-80
2023/04/05 01:20:21;;;;;;;8.43;5.75;;;;;;;;;;5058300;28;20057;-79
2023/04/05 01:23:07;;;;;;;9.82;5.55;;;;;;;;;;5055115;28;20136;-80
2023/04/05 01:25:36;;;;;;;8.77;5.55;;;;;;;;;;5054866;28;20052;-79
2023/04/05 01:28:02;;;;;;;12.43;5.85;;;;;;;;;;5058969;28;20456;-79
2023/04/05 01:30:31;;;;;;;9.88;6.25;;;;;;;;;;5061974;28;20080;-80
2023/04/05 01:33:01;;;;;;;9.32;6.15;;;;;;;;;;5059308;28;20053;-80
2023/04/05 01:35:31;;;;;;;11.02;5.22;;;;;;;;;;5061323;28;20564;-79
2023/04/05 01:37:59;;;;;;;10.80;6.50;;;;;;;;;;5064185;28;20056;-80
2023/04/05 01:40:26;;;;;;;9.25;5.47;;;;;;;;;;5060758;28;20110;-80
2023/04/05 01:42:52;;;;;;;11.85;5.72;;;;;;;;;;5061925;28;20059;-77
2023/04/05 01:45:19;;;;;;;10.52;5.60;;;;;;;;;;5061913;28;20057;-80
2023/04/05 01:47:45;;;;;;;11.13;5.82;;;;;;;;;;5063444;28;20057;-78
2023/04/05 01:50:11;;;;;;;9.30;5.45;;;;;;;;;;5063445;28;20054;-79
2023/04/05 01:52:38;;;;;;;11.00;5.32;;;;;;;;;;5060500;28;20085;-79
2023/04/05 01:55:04;;;;;;;8.40;5.75;;;;;;;;;;5062931;28;20113;-78
2023/04/05 01:57:31;;;;;;;8.18;5.50;;;;;;;;;;5061044;28;20594;-78
2023/04/05 01:59:57;;;;;;;9.57;5.82;;;;;;;;;;5067632;28;20053;-78
2023/04/05 02:02:23;;;;;;;8.30;5.20;;;;;;;;;;5060603;28;20107;-79
2023/04/05 02:04:50;;;;;;;8.55;5.85;;;;;;;;;;5062352;28;20053;-78
2023/04/05 02:07:16;;;;;;;10.32;5.88;;;;;;;;;;5063167;28;20061;-78
2023/04/05 02:09:42;;;;;;;8.00;5.05;;;;;;;;;;5062467;28;20053;-78
2023/04/05 02:12:09;;;;;;;8.93;5.53;;;;;;;;;;5063902;28;20057;-78
2023/04/05 02:14:35;;;;;;;9.95;5.65;;;;;;;;;;5067500;28;20493;-78
2023/04/05 02:17:02;;;;;;;11.07;5.68;;;;;;;;;;5071091;28;20052;-79
2023/04/05 02:19:36;;;;;;;7.90;4.97;;;;;;;;;;5065691;28;20199;-78
2023/04/05 02:22:02;;;;;;;9.02;5.78;;;;;;;;;;5066913;28;20061;-79
2023/04/05 02:24:29;;;;;;;9.63;5.57;;;;;;;;;;5064807;28;20077;-78
2023/04/05 02:26:55;;;;;;;8.32;5.20;;;;;;;;;;5065549;28;20049;-78
2023/04/05 02:29:21;;;;;;;8.02;5.13;;;;;;;;;;5066767;28;20049;-78
2023/04/05 02:31:47;;;;;;;9.10;5.60;;;;;;;;;;5064955;28;20088;-79
2023/04/05 02:34:14;;;;;;;8.27;5.50;;;;;;;;;;5064200;28;20068;-78
2023/04/05 02:36:42;;;;;;;10.15;5.50;;;;;;;;;;5064059;28;20045;-78
2023/04/05 02:39:09;;;;;;;7.07;5.07;;;;;;;;;;5065734;28;20055;-78
2023/04/05 02:41:35;;;;;;;8.82;4.97;;;;;;;;;;5064655;28;20103;-78
2023/04/05 02:44:01;;;;;;;9.27;5.60;;;;;;;;;;5065948;28;20492;-78
2023/04/05 02:46:28;;;;;;;10.60;5.32;;;;;;;;;;5064032;28;20082;-78
2023/04/05 02:48:54;;;;;;;9.35;5.78;;;;;;;;;;5066636;28;20053;-78
2023/04/05 02:51:21;;;;;;;10.27;5.72;;;;;;;;;;5065495;28;20052;-78
2023/04/05 02:53:47;;;;;;;8.32;5.10;;;;;;;;;;5065572;28;20061;-78
2023/04/05 02:56:13;;;;;;;9.02;5.50;;;;;;;;;;5064944;28;20060;-78
2023/04/05 02:58:40;;;;;;;8.23;5.38;;;;;;;;;;5063865;28;20064;-77
2023/04/05 03:01:07;;;;;;;8.93;5.38;;;;;;;;;;5064474;28;20055;-78
2023/04/05 03:03:34;;;;;;;7.95;5.38;;;;;;;;;;5063703;28;20176;-78
2023/04/05 03:06:08;;;;;;;15.27;5.28;;;;;;;;;;5065622;28;20139;-78
2023/04/05 03:08:42;;;;;;;9.90;5.57;;;;;;;;;;5063600;28;20049;-78
2023/04/05 03:11:09;;;;;;;13.63;5.75;;;;;;;;;;5066215;28;20061;-78
2023/04/05 03:13:36;;;;;;;10.52;5.40;;;;;;;;;;5063994;28;20056;-78
2023/04/05 03:16:02;;;;;;;15.55;5.90;;;;;;;;;;5065816;28;20056;-78
2023/04/05 03:18:29;;;;;;;10.65;6.32;;;;;;;;;;5065088;28;20529;-79
2023/04/05 03:20:55;;;;;;;12.40;5.30;;;;;;;;;;5065840;28;20049;-79
2023/04/05 03:23:28;;;;;;;8.82;5.30;;;;;;;;;;5065123;28;20073;-80
2023/04/05 03:25:56;;;;;;;10.68;6.25;;;;;;;;;;5063689;28;20256;-78
2023/04/05 03:28:23;;;;;;;12.05;5.53;;;;;;;;;;5066740;28;20057;-78
2023/04/05 03:30:49;;;;;;;9.80;5.97;;;;;;;;;;5065108;28;20061;-77
2023/04/05 03:33:16;;;;;;;7.22;5.15;;;;;;;;;;5061212;28;20052;-78
2023/04/05 03:35:42;;;;;;;10.63;6.15;;;;;;;;;;5065948;28;20045;-78
2023/04/05 03:38:09;;;;;;;11.45;6.05;;;;;;;;;;5065627;28;20111;-78
2023/04/05 03:40:35;;;;;;;9.60;5.75;;;;;;;;;;5065989;28;20792;-78
2023/04/05 03:43:01;;;;;;;9.73;5.78;;;;;;;;;;5063111;28;20461;-78
2023/04/05 03:45:28;;;;;;;11.23;6.03;;;;;;;;;;5062610;28;20056;-78
2023/04/05 03:47:55;;;;;;;11.45;6.00;;;;;;;;;;5065717;28;20061;-78
2023/04/05 03:50:21;;;;;;;8.80;5.82;;;;;;;;;;5065374;28;20103;-78
2023/04/05 03:52:47;;;;;;;9.15;5.85;;;;;;;;;;5063479;28;20438;-78
2023/04/05 03:55:15;;;;;;;8.65;5.97;;;;;;;;;;5052828;28;20053;-78
2023/04/05 03:57:42;;;;;;;10.52;6.18;;;;;;;;;;5066028;28;20430;-78
2023/04/05 04:00:16;;;;;;;9.60;6.60;;;;;;;;;;5064885;28;20132;-78
2023/04/05 04:02:43;;;;;;;13.48;6.97;;;;;;;;;;5062737;28;20052;-78
2023/04/05 04:05:10;;;;;;;10.35;6.03;;;;;;;;;;5064417;28;20084;-78
2023/04/05 04:07:37;;;;;;;10.63;6.35;;;;;;;;;;5063439;28;20221;-78
2023/04/05 04:10:04;;;;;;;9.27;5.45;;;;;;;;;;5065680;28;20112;-78
2023/04/05 04:12:30;;;;;;;9.45;6.35;;;;;;;;;;5063695;28;20056;-78
2023/04/05 04:14:57;;;;;;;9.85;5.65;;;;;;;;;;5065895;28;20056;-78
2023/04/05 04:17:27;;;;;;;9.30;5.85;;;;;;;;;;5063615;28;20498;-77
2023/04/05 04:19:54;;;;;;;10.20;6.40;;;;;;;;;;5064010;28;20064;-78
2023/04/05 04:22:21;;;;;;;10.88;5.72;;;;;;;;;;5064884;28;20049;-77
2023/04/05 04:24:48;;;;;;;14.25;6.50;;;;;;;;;;5063194;28;20048;-78
2023/04/05 04:27:18;;;;;;;8.77;5.80;;;;;;;;;;5065012;28;20079;-78
2023/04/05 04:29:48;;;;;;;8.77;6.60;;;;;;;;;;5064321;28;20133;-78
2023/04/05 04:32:15;;;;;;;8.60;4.78;;;;;;;;;;5063206;28;20056;-78
2023/04/05 04:34:43;;;;;;;8.93;5.45;;;;;;;;;;5063763;28;20597;-77
2023/04/05 04:37:16;;;;;;;10.07;6.55;;;;;;;;;;5063382;28;20048;-77
2023/04/05 04:39:47;;;;;;;10.23;5.90;;;;;;;;;;5061212;28;20088;-78
2023/04/05 04:42:18;;;;;;;8.40;6.03;;;;;;;;;;5061293;28;20061;-77
2023/04/05 04:44:45;;;;;;;11.68;6.20;;;;;;;;;;5062568;28;20064;-77
2023/04/05 04:47:16;;;;;;;12.48;5.88;;;;;;;;;;5062157;28;20053;-77
2023/04/05 04:49:42;;;;;;;12.90;6.50;;;;;;;;;;5060021;28;20061;-77
2023/04/05 04:52:08;;;;;;;9.25;6.13;;;;;;;;;;5056209;28;20079;-80
2023/04/05 04:54:35;;;;;;;11.55;6.60;;;;;;;;;;5055333;28;21315;-79
2023/04/05 04:57:01;;;;;;;11.45;6.65;;;;;;;;;;5061800;28;20115;-80
2023/04/05 04:59:28;;;;;;;9.23;6.15;;;;;;;;;;5063591;28;20056;-80
2023/04/05 05:01:55;;;;;;;13.73;6.72;;;;;;;;;;5063454;28;20057;-80
2023/04/05 05:04:22;;;;;;;13.98;7.30;;;;;;;;;;5064181;28;20053;-78
2023/04/05 05:06:52;;;;;;;14.57;7.25;;;;;;;;;;5061955;28;20057;-78
2023/04/05 05:09:18;;;;;;;16.95;7.43;;;;;;;;;;5060211;28;20049;-79
2023/04/05 05:11:45;;;;;;;12.00;6.63;;;;;;;;;;5061503;28;20140;-80
2023/04/05 05:14:11;;;;;;;14.73;7.18;;;;;;;;;;5059786;28;20063;-80
2023/04/05 05:16:38;;;;;;;15.05;7.20;;;;;;;;;;5058208;28;20052;-78
2023/04/05 05:19:04;;;;;;;10.45;6.72;;;;;;;;;;5056839;28;20399;-79
2023/04/05 05:21:31;;;;;;;14.02;6.90;;;;;;;;;;5058991;28;20526;-78
2023/04/05 05:23:57;;;;;;;10.52;6.90;;;;;;;;;;5063377;28;20111;-78
2023/04/05 05:26:24;;;;;;;12.10;7.03;;;;;;;;;;5056894;28;20053;-78
2023/04/05 05:28:50;;;;;;;12.50;7.38;;;;;;;;;;5054384;28;20472;-78
2023/04/05 05:31:17;;;;;;;11.85;7.32;;;;;;;;;;5052985;28;20057;-78
2023/04/05 05:33:46;;;;;;;10.52;7.80;;;;;;;;;;5055805;28;20605;-78
2023/04/05 05:36:12;;;;;;;13.70;7.88;;;;;;;;;;5058207;28;20049;-78
2023/04/05 05:38:39;;;;;;;11.40;6.78;;;;;;;;;;5064073;28;20060;-78
2023/04/05 05:41:05;;;;;;;12.35;7.28;;;;;;;;;;5056403;28;20145;-78
2023/04/05 05:43:32;;;;;;;12.13;7.32;;;;;;;;;;5053688;28;20449;-78
2023/04/05 05:46:01;;;;;;;14.00;7.80;;;;;;;;;;5063804;28;20477;-78
2023/04/05 05:48:27;;;;;;;14.05;8.48;;;;;;;;;;5056876;28;20049;-78
2023/04/05 05:50:55;;;;;;;13.40;7.50;;;;;;;;;;5063889;28;20088;-78
2023/04/05 05:53:21;;;;;;;14.27;7.85;;;;;;;;;;5050117;28;20069;-78
2023/04/05 05:55:48;;;;;;;10.18;7.07;;;;;;;;;;5050347;28;20053;-79
2023/04/05 05:58:14;;;;;;;14.57;7.85;;;;;;;;;;5064262;28;20049;-79
2023/04/05 06:00:41;;;;;;;10.82;7.05;;;;;;;;;;5057185;28;20053;-79
2023/04/05 06:03:08;;;;;;;13.40;8.30;;;;;;;;;;5061993;28;20492;-79
2023/04/05 06:05:35;;;;;;;15.48;7.28;;;;;;;;;;5062439;28;20502;-77
2023/04/05 06:08:02;;;;;;;14.73;8.77;;;;;;;;;;5062112;28;20049;-77
2023/04/05 06:10:29;;;;;;;14.18;7.47;;;;;;;;;;5058616;28;20103;-78
2023/04/05 06:12:55;;;;;;;12.52;7.60;;;;;;;;;;5063104;28;20057;-80
2023/04/05 06:15:22;;;;;;;11.70;7.07;;;;;;;;;;5063964;28;20516;-77
2023/04/05 06:17:48;;;;;;;12.98;7.63;;;;;;;;;;5059203;28;20319;-77
2023/04/05 06:20:15;;;;;;;12.68;7.40;;;;;;;;;;5064653;28;20057;-78
2023/04/05 06:22:43;;;;;;;14.52;7.30;;;;;;;;;;5063344;28;20570;-78
2023/04/05 06:25:11;;;;;;;14.27;7.68;;;;;;;;;;5060929;28;20053;-78
2023/04/05 06:27:37;;;;;;;17.20;8.02;;;;;;;;;;5063182;28;20184;-79
2023/04/05 06:30:04;;;;;;;17.08;8.00;;;;;;;;;;5048343;28;20144;-78
2023/04/05 06:32:30;;;;;;;16.80;7.40;;;;;;;;;;5061414;28;20107;-80
2023/04/05 06:34:56;;;;;;;12.05;7.70;;;;;;;;;;5064870;28;20049;-78
2023/04/05 06:37:23;;;;;;;11.48;7.05;;;;;;;;;;5062498;28;20045;-77
2023/04/05 06:39:49;;;;;;;15.38;7.47;;;;;;;;;;5059951;28;21751;-77
2023/04/05 06:42:16;;;;;;;12.63;8.32;;;;;;;;;;5059469;28;20053;-77
2023/04/05 06:44:42;;;;;;;9.30;6.50;;;;;;;;;;5061427;28;20067;-79
2023/04/05 06:47:09;;;;;;;14.68;7.15;;;;;;;;;;5058234;28;20107;-76
2023/04/05 06:49:35;;;;;;;15.52;7.45;;;;;;;;;;5061435;28;20142;-83
2023/04/05 06:52:04;;;;;;;16.92;7.90;;;;;;;;;;5063235;28;20506;-82
2023/04/05 06:54:36;;;;;;;16.40;6.82;;;;;;;;;;5063902;28;20644;-78
2023/04/05 06:57:02;;;;;;;12.45;7.15;;;;;;;;;;5062141;28;20048;-79
2023/04/05 06:59:29;;;;;;;15.85;7.53;;;;;;;;;;5065859;28;20053;-79
2023/04/05 07:01:55;;;;;;;12.15;7.40;;;;;;;;;;5064653;28;20052;-79
2023/04/05 07:04:22;;;;;;;11.98;7.80;;;;;;;;;;5067652;28;20056;-80
2023/04/05 07:06:48;;;;;;;13.93;6.95;;;;;;;;;;5064323;28;20206;-79
2023/04/05 07:09:15;;;;;;;10.85;7.38;;;;;;;;;;5066062;28;20095;-79
2023/04/05 07:11:41;;;;;;;15.95;7.78;;;;;;;;;;5066617;28;20099;-79
2023/04/05 07:14:07;;;;;;;12.23;6.88;;;;;;;;;;5066639;28;20049;-83
2023/04/05 07:16:34;;;;;;;13.68;6.75;;;;;;;;;;5065585;28;20064;-77
2023/04/05 07:19:00;;;;;;;10.57;6.60;;;;;;;;;;5066889;28;20497;-77
2023/04/05 07:21:27;;;;;;;13.43;7.38;;;;;;;;;;5066493;28;20048;-77
2023/04/05 07:23:54;;;;;;;11.65;7.20;;;;;;;;;;5066135;28;20049;-82
2023/04/05 07:26:21;;;;;;;9.88;7.00;;;;;;;;;;5064451;28;20065;-77
2023/04/05 07:28:48;;;;;;;9.80;6.63;;;;;;;;;;5065219;28;20064;-77
2023/04/05 07:31:15;;;;;;;9.25;6.47;;;;;;;;;;5059336;28;20064;-78
2023/04/05 07:33:41;;;;;;;15.00;7.05;;;;;;;;;;5051323;28;20050;-76
2023/04/05 07:36:08;;;;;;;16.02;8.02;;;;;;;;;;5057320;28;20140;-77
2023/04/05 07:38:34;;;;;;;10.32;6.75;;;;;;;;;;5066819;28;20052;-76
2023/04/05 07:41:01;;;;;;;12.25;6.88;;;;;;;;;;5066533;28;20556;-77
2023/04/05 07:43:27;;;;;;;12.40;6.57;;;;;;;;;;5066287;28;20640;-79
2023/04/05 07:46:00;;;;;;;10.38;6.22;;;;;;;;;;5064365;28;20061;-79
2023/04/05 07:48:26;;;;;;;12.63;6.40;;;;;;;;;;5066507;28;20518;-77
2023/04/05 07:50:53;;;;;;;10.43;5.85;;;;;;;;;;5066796;28;20057;-76
2023/04/05 07:53:19;;;;;;;11.82;6.22;;;;;;;;;;5066247;28;20075;-83
2023/04/05 07:55:46;;;;;;;10.65;5.75;;;;;;;;;;5065966;28;20059;-76
2023/04/05 07:58:13;;;;;;;9.00;6.20;;;;;;;;;;5064323;28;20186;-76
2023/04/05 08:00:39;;;;;;;9.00;5.82;;;;;;;;;;5064138;28;20049;-77
2023/04/05 08:03:06;;;;;;;15.30;6.55;;;;;;;;;;5066625;28;20053;-77
2023/04/05 08:05:33;;;;;;;8.77;6.32;;;;;;;;;;5062694;28;20063;-78
2023/04/05 08:07:59;;;;;;;11.07;6.05;;;;;;;;;;5064813;28;20115;-79
2023/04/05 08:10:26;;;;;;;10.40;5.90;;;;;;;;;;5065734;28;20524;-73
2023/04/05 08:12:52;;;;;;;10.48;6.28;;;;;;;;;;5061658;28;20052;-80
2023/04/05 08:15:18;;;;;;;10.07;5.68;;;;;;;;;;5059989;28;20190;-78
2023/04/05 08:17:45;;;;;;;11.13;5.97;;;;;;;;;;5056799;28;20049;-78
2023/04/05 08:20:11;;;;;;;8.13;5.75;;;;;;;;;;5052620;28;20498;-80
2023/04/05 08:22:38;;;;;;;12.25;5.95;;;;;;;;;;5060041;28;20399;-77
2023/04/05 08:25:05;;;;;;;6.80;5.40;;;;;;;;;;5064228;28;20057;-78
2023/04/05 08:27:31;;;;;;;12.73;5.60;;;;;;;;;;5062472;28;20136;-79
2023/04/05 08:29:57;;;;;;;7.25;5.68;;;;;;;;;;5066595;28;20446;-79
2023/04/05 08:32:24;;;;;;;9.07;5.28;;;;;;;;;;5066109;28;20140;-80
2023/04/05 08:34:50;;;;;;;9.70;5.20;;;;;;;;;;5065928;28;20601;-80
2023/04/05 08:37:17;;;;;;;7.25;5.22;;;;;;;;;;5065460;28;20560;-77
2023/04/05 08:39:43;;;;;;;12.00;6.43;;;;;;;;;;5064710;28;20049;-76
2023/04/05 08:42:09;;;;;;;14.20;7.93;;;;;;;;;;5060554;28;20049;-76
2023/04/05 08:44:36;;;;;;;8.35;5.70;;;;;;;;;;5053877;28;20514;-75
2023/04/05 08:47:03;;;;;;;8.32;5.72;;;;;;;;;;5060986;28;20396;-76
2023/04/05 08:49:29;;;;;;;8.52;6.10;;;;;;;;;;5048752;28;20132;-75
2023/04/05 08:51:57;;;;;;;8.10;5.13;;;;;;;;;;5051149;28;20295;-75
2023/04/05 08:54:24;;;;;;;6.68;4.80;;;;;;;;;;5060483;28;20080;-79
2023/04/05 08:56:53;;;;;;;9.73;5.00;;;;;;;;;;5048267;28;20053;-78
2023/04/05 08:59:19;;;;;;;7.32;4.40;;;;;;;;;;5043626;28;20435;-78
2023/04/05 09:01:47;;;;;;;8.50;4.95;;;;;;;;;;5059008;28;20048;-78
2023/04/05 09:04:15;;;;;;;8.88;5.22;;;;;;;;;;5046490;28;20053;-79
2023/04/05 09:06:42;;;;;;;6.07;3.85;;;;;;;;;;5052912;28;20053;-78
2023/04/05 09:09:10;;;;;;;7.85;4.65;;;;;;;;;;5054486;28;21261;-78
2023/04/05 09:11:36;;;;;;;5.60;4.07;;;;;;;;;;5059797;28;20156;-78
2023/04/05 09:14:04;;;;;;;11.10;4.43;;;;;;;;;;5060017;28;20056;-78
2023/04/05 09:16:32;;;;;;;8.90;4.88;;;;;;;;;;5057226;28;20175;-77
2023/04/05 09:18:59;;;;;;;10.43;4.30;;;;;;;;;;5055952;28;20049;-78
2023/04/05 09:21:27;;;;;;;5.38;3.97;;;;;;;;;;5060667;28;20057;-77
2023/04/05 09:23:54;;;;;;;10.10;4.18;;;;;;;;;;5057668;28;20057;-74
2023/04/05 09:26:22;;;;;;;8.32;4.30;;;;;;;;;;5058015;28;20659;-75
2023/04/05 09:28:48;;;;;;;5.72;4.22;;;;;;;;;;5040784;28;20198;-75
2023/04/05 09:31:31;;;;;;;5.80;4.03;;;;;;;;;;5056473;28;20597;-76
2023/04/05 09:33:59;;;;;;;6.05;4.43;;;;;;;;;;5042579;28;20630;-74
2023/04/05 09:36:27;;;;;;;7.85;5.07;;;;;;;;;;5060544;28;20053;-76
2023/04/05 09:39:03;;;;;;;10.20;5.32;;;;;;;;;;5051054;28;20053;-77
2023/04/05 09:41:29;;;;;;;8.65;4.75;;;;;;;;;;5056904;28;20049;-78
2023/04/05 09:43:55;;;;;;;8.60;5.50;;;;;;;;;;5057460;28;20057;-78
2023/04/05 09:46:30;;;;;;;5.80;4.53;;;;;;;;;;5044094;28;20119;-78
2023/04/05 09:48:56;;;;;;;8.10;5.45;;;;;;;;;;5058180;28;20500;-77
2023/04/05 09:51:30;;;;;;;10.65;5.03;;;;;;;;;;5057475;28;20403;-79
2023/04/05 09:54:01;;;;;;;13.65;4.97;;;;;;;;;;5046689;28;20560;-79
2023/04/05 09:56:29;;;;;;;9.13;4.68;;;;;;;;;;5043422;28;20762;-79
2023/04/05 09:59:03;;;;;;;8.45;4.43;;;;;;;;;;5055824;28;20164;-78
2023/04/05 10:01:30;;;;;;;8.88;5.05;;;;;;;;;;5045776;28;20089;-81
2023/04/05 10:03:58;;;;;;;9.32;4.85;;;;;;;;;;5041204;28;20494;-80
2023/04/05 10:06:38;;;;;;;7.57;4.35;;;;;;;;;;5051274;28;20313;-80
2023/04/05 10:09:06;;;;;;;7.20;4.35;;;;;;;;;;5059963;28;20053;-77
2023/04/05 10:11:33;;;;;;;10.32;4.40;;;;;;;;;;5051657;28;20151;-77
2023/04/05 10:14:02;;;;;;;9.52;4.60;;;;;;;;;;5040136;28;20076;-80
2023/04/05 10:16:31;;;;;;;7.18;4.75;;;;;;;;;;5046739;28;20053;-80
2023/04/05 10:18:57;;;;;;;8.13;4.78;;;;;;;;;;5056363;28;20398;-77
2023/04/05 10:21:28;;;;;;;7.80;4.82;;;;;;;;;;5050247;28;20077;-78
2023/04/05 10:24:10;;;;;;;8.40;4.90;;;;;;;;;;5048795;28;20060;-77
2023/04/05 10:27:01;;;;;;;9.77;4.75;;;;;;;;;;5044281;28;20935;-76
2023/04/05 10:29:47;;;;;;;7.80;5.35;;;;;;;;;;5039967;28;20061;-78
2023/04/05 10:32:19;;;;;;;11.63;5.47;;;;;;;;;;5036626;28;20066;-79
2023/04/05 10:34:56;;;;;;;7.70;5.10;;;;;;;;;;5042930;28;20940;-76
2023/04/05 10:37:25;;;;;;;7.78;5.07;;;;;;;;;;5058663;28;20424;-79
2023/04/05 10:39:52;;;;;;;9.23;5.18;;;;;;;;;;5045042;28;20053;-83
2023/04/05 10:42:20;;;;;;;7.80;5.28;;;;;;;;;;5046552;28;20057;-80
2023/04/05 10:44:50;;;;;;;7.28;5.25;;;;;;;;;;5055492;28;20049;-76
2023/04/05 10:47:18;;;;;;;8.68;4.75;;;;;;;;;;5059960;28;20052;-77
2023/04/05 10:49:46;;;;;;;8.32;5.60;;;;;;;;;;5061122;28;20060;-77
2023/04/05 10:52:12;;;;;;;8.85;5.22;;;;;;;;;;5054058;28;20514;-78
2023/04/05 10:54:39;;;;;;;10.00;5.03;;;;;;;;;;5053676;28;20081;-78
2023/04/05 10:57:07;;;;;;;6.85;5.35;;;;;;;;;;5060507;28;20049;-77
2023/04/05 10:59:38;;;;;;;8.35;5.15;;;;;;;;;;5060695;28;20052;-78
2023/04/05 11:02:05;;;;;;;7.75;4.95;;;;;;;;;;5055252;28;20104;-80
2023/04/05 11:04:33;;;;;;;8.18;5.45;;;;;;;;;;5062740;28;20259;-79
2023/04/05 11:07:11;;;;;;;5.88;4.95;;;;;;;;;;5059424;28;20057;-80
2023/04/05 11:09:59;;;;;;;8.52;5.20;;;;;;;;;;5042646;28;20050;-80
2023/04/05 11:12:45;;;;;;;9.05;6.03;;;;;;;;;;5049812;28;20084;-80
2023/04/05 11:15:26;;;;;;;6.55;5.13;;;;;;;;;;5050041;28;20107;-78
2023/04/05 11:18:03;;;;;;;7.22;5.55;;;;;;;;;;5052070;28;20208;-79
2023/04/05 11:20:42;;;;;;;7.32;5.43;;;;;;;;;;5061058;28;20056;-79
2023/04/05 11:23:10;;;;;;;7.95;5.20;;;;;;;;;;5055360;28;20051;-80
2023/04/05 11:25:38;;;;;;;11.05;5.25;;;;;;;;;;5060497;28;20623;-79
2023/04/05 11:28:05;;;;;;;8.95;4.85;;;;;;;;;;5057885;28;20111;-78
2023/04/05 11:30:47;;;;;;;9.32;5.32;;;;;;;;;;5047995;28;20493;-79
2023/04/05 11:33:32;;;;;;;7.18;5.30;;;;;;;;;;5051188;28;20148;-79
2023/04/05 11:36:01;;;;;;;8.00;4.97;;;;;;;;;;5061703;28;20045;-80
2023/04/05 11:38:28;;;;;;;8.30;5.15;;;;;;;;;;5050342;28;20591;-78
2023/04/05 11:41:05;;;;;;;7.95;5.45;;;;;;;;;;5047180;28;20521;-78
2023/04/05 11:43:33;;;;;;;7.82;4.93;;;;;;;;;;5050967;28;20079;-79
2023/04/05 11:46:06;;;;;;;7.95;4.93;;;;;;;;;;5061479;28;20107;-79
2023/04/05 11:48:33;;;;;;;7.32;4.55;;;;;;;;;;5050235;28;20049;-79
2023/04/05 11:51:00;;;;;;;7.38;4.72;;;;;;;;;;5042082;28;20710;-79
2023/04/05 11:53:27;;;;;;;7.95;4.85;;;;;;;;;;5055009;28;20052;-80
2023/04/05 11:55:55;;;;;;;6.80;4.43;;;;;;;;;;5058616;28;20136;-79
2023/04/05 11:58:23;;;;;;;8.00;5.60;;;;;;;;;;5061554;28;20060;-80
2023/04/05 12:01:01;;;;;;;8.05;4.97;;;;;;;;;;5045082;28;20056;-80
2023/04/05 12:03:28;;;;;;;9.95;4.93;;;;;;;;;;5060693;28;20045;-80
2023/04/05 12:05:56;;;;;;;7.13;4.57;;;;;;;;;;5044386;28;20104;-79
2023/04/05 12:08:22;;;;;;;8.13;5.10;;;;;;;;;;5050509;28;20057;-80
2023/04/05 12:10:53;;;;;;;9.00;5.03;;;;;;;;;;5046945;28;20144;-80
2023/04/05 12:13:27;;;;;;;7.80;5.05;;;;;;;;;;5052633;28;20582;-80
2023/04/05 12:15:53;;;;;;;8.60;4.93;;;;;;;;;;5042265;28;20616;-80
2023/04/05 12:18:20;;;;;;;9.20;5.40;;;;;;;;;;5056878;28;20433;-80
2023/04/05 12:20:46;;;;;;;8.15;5.32;;;;;;;;;;5061042;28;20053;-80
2023/04/05 12:23:13;;;;;;;8.25;5.00;;;;;;;;;;5059833;28;20502;-81
2023/04/05 12:25:41;;;;;;;7.60;5.40;;;;;;;;;;5062590;28;20057;-81
2023/04/05 12:28:08;;;;;;;6.13;5.03;;;;;;;;;;5060410;28;20696;-80
2023/04/05 12:30:36;;;;;;;8.38;4.63;;;;;;;;;;5056024;28;20453;-78
2023/04/05 12:33:08;;;;;;;7.60;5.03;;;;;;;;;;5054393;28;20059;-80
2023/04/05 12:35:35;;;;;;;8.18;5.65;;;;;;;;;;5044822;28;20057;-82
2023/04/05 12:38:04;;;;;;;6.35;4.78;;;;;;;;;;5062923;28;20103;-78
2023/04/05 12:40:31;;;;;;;8.40;5.10;;;;;;;;;;5061946;28;20057;-79
2023/04/05 12:43:02;;;;;;;8.15;5.45;;;;;;;;;;5059209;28;20049;-79
2023/04/05 12:45:30;;;;;;;6.25;4.93;;;;;;;;;;5059993;28;20057;-79
2023/04/05 12:47:57;;;;;;;7.65;5.07;;;;;;;;;;5058405;28;20057;-79
2023/04/05 12:50:25;;;;;;;8.05;5.28;;;;;;;;;;5056362;28;20056;-77
2023/04/05 12:52:52;;;;;;;7.80;5.10;;;;;;;;;;5052054;28;20057;-80
2023/04/05 12:55:20;;;;;;;7.53;5.07;;;;;;;;;;5061339;28;20482;-77
2023/04/05 12:57:53;;;;;;;6.97;5.15;;;;;;;;;;5056535;28;20084;-81
2023/04/05 13:00:23;;;;;;;8.55;5.00;;;;;;;;;;5075579;28;20867;-80
2023/04/05 13:02:52;;;;;;;7.30;4.97;;;;;;;;;;5057273;28;20077;-81
2023/04/05 13:05:19;;;;;;;9.70;5.50;;;;;;;;;;5052972;28;20327;-80
2023/04/05 13:07:46;;;;;;;7.32;5.28;;;;;;;;;;5058324;28;20301;-78
2023/04/05 13:10:12;;;;;;;6.18;5.07;;;;;;;;;;5046067;28;20072;-80
2023/04/05 13:12:39;;;;;;;5.85;4.90;;;;;;;;;;5060007;28;20049;-66
2023/04/05 13:15:05;;;;;;;7.53;6.15;;;;;;;;;;5058887;28;20562;-82
2023/04/05 13:17:32;;;;;;;6.85;5.43;;;;;;;;;;5053137;28;20049;-82
2023/04/05 13:19:59;;;;;;;8.10;5.18;;;;;;;;;;5053806;28;20438;-71
2023/04/05 13:22:25;;;;;;;8.50;5.68;;;;;;;;;;5053823;28;20052;-81
2023/04/05 13:24:54;;;;;;;6.97;5.68;;;;;;;;;;5051246;28;20057;-81
2023/04/05 13:27:21;;;;;;;6.35;4.95;;;;;;;;;;5050430;28;20092;-82
2023/04/05 13:29:47;;;;;;;5.60;4.90;;;;;;;;;;5046212;28;20056;-83
2023/04/05 13:32:14;;;;;;;8.63;5.35;;;;;;;;;;5051039;28;20063;-81
2023/04/05 13:34:40;;;;;;;10.13;5.75;;;;;;;;;;5051641;28;20144;-80
2023/04/05 13:37:07;;;;;;;6.85;5.13;;;;;;;;;;5051170;28;20053;-82
2023/04/05 13:39:33;;;;;;;10.45;5.65;;;;;;;;;;5054507;28;20140;-82
2023/04/05 13:42:00;;;;;;;7.95;5.63;;;;;;;;;;5058617;28;20579;-86
2023/04/05 13:44:26;;;;;;;6.50;5.55;;;;;;;;;;5052782;28;20511;-86
2023/04/05 13:46:53;;;;;;;6.93;5.65;;;;;;;;;;5043743;28;20087;-86
2023/04/05 13:49:19;;;;;;;6.30;5.60;;;;;;;;;;5040390;28;20137;-85
2023/04/05 13:51:45;;;;;;;6.05;4.45;;;;;;;;;;5046179;28;20508;-83
2023/04/05 13:54:12;;;;;;;7.20;4.88;;;;;;;;;;5057068;28;20183;-83
2023/04/05 13:56:39;;;;;;;7.70;4.78;;;;;;;;;;5059382;28;20053;-82
2023/04/05 13:59:05;;;;;;;6.82;4.90;;;;;;;;;;5060529;28;20321;-82
2023/04/05 14:01:32;;;;;;;6.47;5.32;;;;;;;;;;5058881;28;20506;-76
2023/04/05 14:03:59;;;;;;;7.20;5.30;;;;;;;;;;5058827;28;20421;-84
2023/04/05 14:06:26;;;;;;;6.13;5.30;;;;;;;;;;5058346;28;20064;-77
2023/04/05 14:08:55;;;;;;;7.25;5.25;;;;;;;;;;5050712;28;20443;-77
2023/04/05 14:11:22;;;;;;;8.27;5.85;;;;;;;;;;5049584;28;20489;-77
2023/04/05 14:13:51;;;;;;;8.57;5.60;;;;;;;;;;5052348;28;20293;-78
2023/04/05 14:16:18;;;;;;;6.97;5.38;;;;;;;;;;5040007;28;20112;-77
2023/04/05 14:18:44;;;;;;;10.10;5.57;;;;;;;;;;5047160;28;20069;-77
2023/04/05 14:21:10;;;;;;;8.32;6.05;;;;;;;;;;5052746;28;20057;-77
2023/04/05 14:23:37;;;;;;;9.85;6.15;;;;;;;;;;5049306;28;20053;-77
2023/04/05 14:26:04;;;;;;;7.95;5.95;;;;;;;;;;5056494;28;20708;-77
2023/04/05 14:28:30;;;;;;;7.72;5.70;;;;;;;;;;5050161;28;20060;-77
2023/04/05 14:30:58;;;;;;;6.65;5.72;;;;;;;;;;5051082;28;20499;-74
2023/04/05 14:33:28;;;;;;;9.02;5.80;;;;;;;;;;5052694;28;20127;-76
2023/04/05 14:35:54;;;;;;;6.88;5.32;;;;;;;;;;5050958;28;20057;-78
2023/04/05 14:38:21;;;;;;;8.40;5.80;;;;;;;;;;5046795;28;20127;-77
2023/04/05 14:40:47;;;;;;;8.73;5.85;;;;;;;;;;5043260;28;20049;-78
2023/04/05 14:43:13;;;;;;;6.10;5.25;;;;;;;;;;5053230;28;20474;-78